sensor_id;sensor_type;location;lat;lon;timestamp;P1;durP1;ratioP1;P2;durP2;ratioP2
9729;SDS011;4904;49.152;11.004;2022-11-24T00:01:47;4.32;;;3.60;;
9729;SDS011;4904;49.152;11.004;2022-11-24T00:04:16;6.93;;;4.73;;
9729;SDS011;4904;49.152;11.004;2022-11-24T00:06:43;5.45;;;4.32;;
9729;SDS011;4904;49.152;11.004;2022-11-24T00:09:10;4.53;;;2.53;;
9729;SDS011;4904;49.152;11.004;2022-11-24T00:11:37;5.63;;;3.47;;
9729;SDS011;4904;49.152;11.004;2022-11-24T00:14:04;2.85;;;2.17;;
9729;SDS011;4904;49.152;11.004;2022-11-24T00:16:32;8.70;;;3.57;;
9729;SDS011;4904;49.152;11.004;2022-11-24T00:19:01;3.67;;;3.33;;
9729;SDS011;4904;49.152;11.004;2022-11-24T00:21:31;6.57;;;3.50;;
9729;SDS011;4904;49.152;11.004;2022-11-24T00:23:58;5.78;;;4.25;;
9729;SDS011;4904;49.152;11.004;2022-11-24T00:26:26;6.78;;;4.00;;
9729;SDS011;4904;49.152;11.004;2022-11-24T00:28:54;7.95;;;3.70;;
9729;SDS011;4904;49.152;11.004;2022-11-24T00:31:25;4.43;;;2.40;;
9729;SDS011;4904;49.152;11.004;2022-11-24T00:33:53;6.53;;;3.30;;
9729;SDS011;4904;49.152;11.004;2022-11-24T00:36:22;6.90;;;3.72;;
9729;SDS011;4904;49.152;11.004;2022-11-24T00:38:53;7.28;;;3.40;;
9729;SDS011;4904;49.152;11.004;2022-11-24T00:41:20;9.85;;;3.22;;
9729;SDS011;4904;49.152;11.004;2022-11-24T00:43:48;8.90;;;3.28;;
9729;SDS011;4904;49.152;11.004;2022-11-24T00:46:15;10.35;;;3.80;;
9729;SDS011;4904;49.152;11.004;2022-11-24T00:48:42;9.95;;;3.30;;
9729;SDS011;4904;49.152;11.004;2022-11-24T00:51:09;10.05;;;2.88;;
9729;SDS011;4904;49.152;11.004;2022-11-24T00:53:38;9.57;;;3.28;;
9729;SDS011;4904;49.152;11.004;2022-11-24T00:56:07;10.07;;;3.70;;
9729;SDS011;4904;49.152;11.004;2022-11-24T00:58:34;9.67;;;3.20;;
9729;SDS011;4904;49.152;11.004;2022-11-24T01:01:03;3.88;;;2.33;;
9729;SDS011;4904;49.152;11.004;2022-11-24T01:03:31;9.75;;;2.90;;
9729;SDS011;4904;49.152;11.004;2022-11-24T01:06:01;8.88;;;3.10;;
9729;SDS011;4904;49.152;11.004;2022-11-24T01:08:29;9.82;;;3.28;;
9729;SDS011;4904;49.152;11.004;2022-11-24T01:11:04;9.13;;;3.30;;
9729;SDS011;4904;49.152;11.004;2022-11-24T01:13:34;11.20;;;3.17;;
9729;SDS011;4904;49.152;11.004;2022-11-24T01:16:01;12.55;;;3.08;;
9729;SDS011;4904;49.152;11.004;2022-11-24T01:18:27;7.18;;;3.50;;
9729;SDS011;4904;49.152;11.004;2022-11-24T01:20:54;10.23;;;3.65;;
9729;SDS011;4904;49.152;11.004;2022-11-24T01:23:21;14.70;;;3.33;;
9729;SDS011;4904;49.152;11.004;2022-11-24T01:25:48;9.32;;;3.38;;
9729;SDS011;4904;49.152;11.004;2022-11-24T01:28:16;10.75;;;3.40;;
9729;SDS011;4904;49.152;11.004;2022-11-24T01:30:43;11.00;;;3.28;;
9729;SDS011;4904;49.152;11.004;2022-11-24T01:33:11;14.63;;;3.30;;
9729;SDS011;4904;49.152;11.004;2022-11-24T01:35:38;11.38;;;3.33;;
9729;SDS011;4904;49.152;11.004;2022-11-24T01:38:05;10.23;;;3.22;;
9729;SDS011;4904;49.152;11.004;2022-11-24T01:40:31;9.95;;;3.13;;
9729;SDS011;4904;49.152;11.004;2022-11-24T01:42:58;6.80;;;2.67;;
9729;SDS011;4904;49.152;11.004;2022-11-24T01:45:35;8.43;;;2.97;;
9729;SDS011;4904;49.152;11.004;2022-11-24T01:48:05;11.20;;;3.10;;
9729;SDS011;4904;49.152;11.004;2022-11-24T01:50:36;10.60;;;3.60;;
9729;SDS011;4904;49.152;11.004;2022-11-24T01:53:05;10.15;;;3.03;;
9729;SDS011;4904;49.152;11.004;2022-11-24T01:55:33;8.70;;;3.00;;
9729;SDS011;4904;49.152;11.004;2022-11-24T01:58:03;8.77;;;3.15;;
9729;SDS011;4904;49.152;11.004;2022-11-24T02:00:33;12.20;;;2.90;;
9729;SDS011;4904;49.152;11.004;2022-11-24T02:03:03;15.73;;;3.30;;
9729;SDS011;4904;49.152;11.004;2022-11-24T02:05:32;9.88;;;3.40;;
9729;SDS011;4904;49.152;11.004;2022-11-24T02:08:04;7.88;;;2.30;;
9729;SDS011;4904;49.152;11.004;2022-11-24T02:10:38;10.13;;;2.55;;
9729;SDS011;4904;49.152;11.004;2022-11-24T02:13:05;12.05;;;3.13;;
9729;SDS011;4904;49.152;11.004;2022-11-24T02:15:32;11.85;;;3.55;;
9729;SDS011;4904;49.152;11.004;2022-11-24T02:18:01;14.05;;;3.40;;
9729;SDS011;4904;49.152;11.004;2022-11-24T02:20:28;6.50;;;2.70;;
9729;SDS011;4904;49.152;11.004;2022-11-24T02:22:56;9.15;;;3.10;;
9729;SDS011;4904;49.152;11.004;2022-11-24T02:25:28;11.82;;;2.85;;
9729;SDS011;4904;49.152;11.004;2022-11-24T02:28:05;10.23;;;2.92;;
9729;SDS011;4904;49.152;11.004;2022-11-24T02:30:35;12.93;;;3.53;;
9729;SDS011;4904;49.152;11.004;2022-11-24T02:33:02;12.70;;;3.33;;
9729;SDS011;4904;49.152;11.004;2022-11-24T02:35:29;11.52;;;3.38;;
9729;SDS011;4904;49.152;11.004;2022-11-24T02:37:56;9.52;;;3.10;;
9729;SDS011;4904;49.152;11.004;2022-11-24T02:40:24;11.82;;;2.72;;
9729;SDS011;4904;49.152;11.004;2022-11-24T02:42:55;10.95;;;2.90;;
9729;SDS011;4904;49.152;11.004;2022-11-24T02:45:26;9.25;;;2.78;;
9729;SDS011;4904;49.152;11.004;2022-11-24T02:47:55;13.52;;;3.03;;
9729;SDS011;4904;49.152;11.004;2022-11-24T02:50:22;10.50;;;2.63;;
9729;SDS011;4904;49.152;11.004;2022-11-24T02:52:49;12.55;;;3.30;;
9729;SDS011;4904;49.152;11.004;2022-11-24T02:55:16;10.13;;;2.70;;
9729;SDS011;4904;49.152;11.004;2022-11-24T02:57:42;14.93;;;3.97;;
9729;SDS011;4904;49.152;11.004;2022-11-24T03:00:09;13.82;;;2.88;;
9729;SDS011;4904;49.152;11.004;2022-11-24T03:02:38;9.63;;;2.33;;
9729;SDS011;4904;49.152;11.004;2022-11-24T03:05:05;11.20;;;2.75;;
9729;SDS011;4904;49.152;11.004;2022-11-24T03:07:32;10.43;;;2.88;;
9729;SDS011;4904;49.152;11.004;2022-11-24T03:09:59;11.70;;;3.25;;
9729;SDS011;4904;49.152;11.004;2022-11-24T03:12:26;8.55;;;2.60;;
9729;SDS011;4904;49.152;11.004;2022-11-24T03:14:53;12.25;;;3.38;;
9729;SDS011;4904;49.152;11.004;2022-11-24T03:17:20;11.10;;;3.25;;
9729;SDS011;4904;49.152;11.004;2022-11-24T03:19:48;14.32;;;4.13;;
9729;SDS011;4904;49.152;11.004;2022-11-24T03:22:15;9.13;;;2.65;;
9729;SDS011;4904;49.152;11.004;2022-11-24T03:24:41;14.30;;;3.40;;
9729;SDS011;4904;49.152;11.004;2022-11-24T03:27:08;8.70;;;2.97;;
9729;SDS011;4904;49.152;11.004;2022-11-24T03:29:35;10.40;;;2.92;;
9729;SDS011;4904;49.152;11.004;2022-11-24T03:32:02;10.57;;;3.22;;
9729;SDS011;4904;49.152;11.004;2022-11-24T03:34:29;9.68;;;2.80;;
9729;SDS011;4904;49.152;11.004;2022-11-24T03:36:57;10.77;;;2.72;;
9729;SDS011;4904;49.152;11.004;2022-11-24T03:39:24;14.02;;;3.30;;
9729;SDS011;4904;49.152;11.004;2022-11-24T03:41:51;10.80;;;2.97;;
9729;SDS011;4904;49.152;11.004;2022-11-24T03:44:18;9.43;;;2.80;;
9729;SDS011;4904;49.152;11.004;2022-11-24T03:46:45;8.15;;;2.80;;
9729;SDS011;4904;49.152;11.004;2022-11-24T03:49:11;11.88;;;2.88;;
9729;SDS011;4904;49.152;11.004;2022-11-24T03:51:38;10.07;;;3.10;;
9729;SDS011;4904;49.152;11.004;2022-11-24T03:54:06;7.60;;;3.43;;
9729;SDS011;4904;49.152;11.004;2022-11-24T03:56:33;6.03;;;2.88;;
9729;SDS011;4904;49.152;11.004;2022-11-24T03:59:00;10.32;;;3.33;;
9729;SDS011;4904;49.152;11.004;2022-11-24T04:01:27;14.00;;;3.67;;
9729;SDS011;4904;49.152;11.004;2022-11-24T04:03:54;7.93;;;2.80;;
9729;SDS011;4904;49.152;11.004;2022-11-24T04:06:21;9.60;;;3.13;;
9729;SDS011;4904;49.152;11.004;2022-11-24T04:08:47;12.52;;;3.25;;
9729;SDS011;4904;49.152;11.004;2022-11-24T04:11:16;9.40;;;3.00;;
9729;SDS011;4904;49.152;11.004;2022-11-24T04:13:56;8.68;;;3.03;;
9729;SDS011;4904;49.152;11.004;2022-11-24T04:16:23;6.65;;;2.53;;
9729;SDS011;4904;49.152;11.004;2022-11-24T04:18:50;12.27;;;3.28;;
9729;SDS011;4904;49.152;11.004;2022-11-24T04:21:17;10.18;;;2.70;;
9729;SDS011;4904;49.152;11.004;2022-11-24T04:23:44;8.68;;;3.05;;
9729;SDS011;4904;49.152;11.004;2022-11-24T04:26:11;12.73;;;2.80;;
9729;SDS011;4904;49.152;11.004;2022-11-24T04:28:40;9.27;;;2.35;;
9729;SDS011;4904;49.152;11.004;2022-11-24T04:31:07;11.65;;;2.50;;
9729;SDS011;4904;49.152;11.004;2022-11-24T04:33:34;9.90;;;2.70;;
9729;SDS011;4904;49.152;11.004;2022-11-24T04:36:01;11.70;;;2.50;;
9729;SDS011;4904;49.152;11.004;2022-11-24T04:38:27;8.30;;;2.65;;
9729;SDS011;4904;49.152;11.004;2022-11-24T04:40:54;9.68;;;2.28;;
9729;SDS011;4904;49.152;11.004;2022-11-24T04:43:25;10.40;;;2.47;;
9729;SDS011;4904;49.152;11.004;2022-11-24T04:45:53;8.27;;;2.67;;
9729;SDS011;4904;49.152;11.004;2022-11-24T04:48:20;7.13;;;2.30;;
9729;SDS011;4904;49.152;11.004;2022-11-24T04:50:47;8.02;;;2.30;;
9729;SDS011;4904;49.152;11.004;2022-11-24T04:53:14;10.55;;;2.97;;
9729;SDS011;4904;49.152;11.004;2022-11-24T04:55:41;9.00;;;2.60;;
9729;SDS011;4904;49.152;11.004;2022-11-24T04:58:08;10.75;;;2.75;;
9729;SDS011;4904;49.152;11.004;2022-11-24T05:00:35;5.75;;;2.00;;
9729;SDS011;4904;49.152;11.004;2022-11-24T05:03:04;10.30;;;2.63;;
9729;SDS011;4904;49.152;11.004;2022-11-24T05:05:31;9.65;;;2.53;;
9729;SDS011;4904;49.152;11.004;2022-11-24T05:07:58;7.85;;;2.67;;
9729;SDS011;4904;49.152;11.004;2022-11-24T05:10:25;10.25;;;2.70;;
9729;SDS011;4904;49.152;11.004;2022-11-24T05:13:00;7.32;;;2.75;;
9729;SDS011;4904;49.152;11.004;2022-11-24T05:15:28;7.88;;;2.55;;
9729;SDS011;4904;49.152;11.004;2022-11-24T05:17:55;7.53;;;2.47;;
9729;SDS011;4904;49.152;11.004;2022-11-24T05:20:24;7.03;;;2.40;;
9729;SDS011;4904;49.152;11.004;2022-11-24T05:22:51;6.95;;;2.22;;
9729;SDS011;4904;49.152;11.004;2022-11-24T05:25:18;8.35;;;2.58;;
9729;SDS011;4904;49.152;11.004;2022-11-24T05:27:45;6.43;;;2.25;;
9729;SDS011;4904;49.152;11.004;2022-11-24T05:30:12;12.40;;;2.72;;
9729;SDS011;4904;49.152;11.004;2022-11-24T05:32:39;7.85;;;2.45;;
9729;SDS011;4904;49.152;11.004;2022-11-24T05:35:06;12.27;;;2.67;;
9729;SDS011;4904;49.152;11.004;2022-11-24T05:37:36;9.27;;;2.72;;
9729;SDS011;4904;49.152;11.004;2022-11-24T05:40:04;7.45;;;2.05;;
9729;SDS011;4904;49.152;11.004;2022-11-24T05:42:31;9.18;;;2.97;;
9729;SDS011;4904;49.152;11.004;2022-11-24T05:45:08;6.57;;;2.47;;
9729;SDS011;4904;49.152;11.004;2022-11-24T05:47:38;7.47;;;2.50;;
9729;SDS011;4904;49.152;11.004;2022-11-24T05:50:06;7.95;;;2.67;;
9729;SDS011;4904;49.152;11.004;2022-11-24T05:52:34;6.90;;;2.10;;
9729;SDS011;4904;49.152;11.004;2022-11-24T05:55:03;7.97;;;2.67;;
9729;SDS011;4904;49.152;11.004;2022-11-24T05:57:31;8.02;;;2.45;;
9729;SDS011;4904;49.152;11.004;2022-11-24T05:59:58;12.23;;;3.40;;
9729;SDS011;4904;49.152;11.004;2022-11-24T06:02:25;8.60;;;2.60;;
9729;SDS011;4904;49.152;11.004;2022-11-24T06:04:52;6.72;;;2.20;;
9729;SDS011;4904;49.152;11.004;2022-11-24T06:07:19;7.07;;;2.85;;
9729;SDS011;4904;49.152;11.004;2022-11-24T06:09:47;8.20;;;2.65;;
9729;SDS011;4904;49.152;11.004;2022-11-24T06:12:14;8.43;;;3.05;;
9729;SDS011;4904;49.152;11.004;2022-11-24T06:14:41;9.52;;;3.08;;
9729;SDS011;4904;49.152;11.004;2022-11-24T06:17:08;8.38;;;3.22;;
9729;SDS011;4904;49.152;11.004;2022-11-24T06:19:36;6.53;;;2.45;;
9729;SDS011;4904;49.152;11.004;2022-11-24T06:22:02;5.38;;;2.58;;
9729;SDS011;4904;49.152;11.004;2022-11-24T06:24:29;4.85;;;2.70;;
9729;SDS011;4904;49.152;11.004;2022-11-24T06:26:57;7.60;;;2.70;;
9729;SDS011;4904;49.152;11.004;2022-11-24T06:29:24;10.57;;;2.95;;
9729;SDS011;4904;49.152;11.004;2022-11-24T06:31:52;8.07;;;2.97;;
9729;SDS011;4904;49.152;11.004;2022-11-24T06:34:19;5.68;;;2.55;;
9729;SDS011;4904;49.152;11.004;2022-11-24T06:36:45;9.32;;;3.00;;
9729;SDS011;4904;49.152;11.004;2022-11-24T06:39:12;6.60;;;2.60;;
9729;SDS011;4904;49.152;11.004;2022-11-24T06:41:39;5.10;;;2.30;;
9729;SDS011;4904;49.152;11.004;2022-11-24T06:44:07;6.32;;;2.90;;
9729;SDS011;4904;49.152;11.004;2022-11-24T06:46:34;8.80;;;2.78;;
9729;SDS011;4904;49.152;11.004;2022-11-24T06:49:01;6.13;;;2.47;;
9729;SDS011;4904;49.152;11.004;2022-11-24T06:51:28;6.17;;;2.87;;
9729;SDS011;4904;49.152;11.004;2022-11-24T06:53:54;9.18;;;2.75;;
9729;SDS011;4904;49.152;11.004;2022-11-24T06:56:21;7.60;;;2.78;;
9729;SDS011;4904;49.152;11.004;2022-11-24T06:58:49;8.07;;;3.03;;
9729;SDS011;4904;49.152;11.004;2022-11-24T07:01:19;5.95;;;2.30;;
9729;SDS011;4904;49.152;11.004;2022-11-24T07:03:47;8.60;;;2.97;;
9729;SDS011;4904;49.152;11.004;2022-11-24T07:06:15;6.13;;;2.80;;
9729;SDS011;4904;49.152;11.004;2022-11-24T07:08:42;8.03;;;2.50;;
9729;SDS011;4904;49.152;11.004;2022-11-24T07:11:11;5.17;;;2.80;;
9729;SDS011;4904;49.152;11.004;2022-11-24T07:13:39;5.33;;;2.80;;
9729;SDS011;4904;49.152;11.004;2022-11-24T07:16:10;8.87;;;2.83;;
9729;SDS011;4904;49.152;11.004;2022-11-24T07:18:39;5.00;;;2.50;;
9729;SDS011;4904;49.152;11.004;2022-11-24T07:21:06;6.47;;;2.90;;
9729;SDS011;4904;49.152;11.004;2022-11-24T07:23:33;7.20;;;3.10;;
9729;SDS011;4904;49.152;11.004;2022-11-24T07:26:00;6.93;;;2.67;;
9729;SDS011;4904;49.152;11.004;2022-11-24T07:28:27;5.57;;;2.83;;
9729;SDS011;4904;49.152;11.004;2022-11-24T07:30:54;6.30;;;3.13;;
9729;SDS011;4904;49.152;11.004;2022-11-24T07:33:21;7.43;;;3.17;;
9729;SDS011;4904;49.152;11.004;2022-11-24T07:35:51;6.97;;;3.10;;
9729;SDS011;4904;49.152;11.004;2022-11-24T07:38:18;6.25;;;3.00;;
9729;SDS011;4904;49.152;11.004;2022-11-24T07:40:45;5.57;;;3.22;;
9729;SDS011;4904;49.152;11.004;2022-11-24T07:43:12;7.97;;;3.08;;
9729;SDS011;4904;49.152;11.004;2022-11-24T07:45:39;8.88;;;3.28;;
9729;SDS011;4904;49.152;11.004;2022-11-24T07:48:06;5.55;;;2.88;;
9729;SDS011;4904;49.152;11.004;2022-11-24T07:50:34;7.17;;;3.30;;
9729;SDS011;4904;49.152;11.004;2022-11-24T07:53:02;9.23;;;3.08;;
9729;SDS011;4904;49.152;11.004;2022-11-24T07:55:29;10.48;;;3.40;;
9729;SDS011;4904;49.152;11.004;2022-11-24T07:57:57;7.05;;;3.50;;
9729;SDS011;4904;49.152;11.004;2022-11-24T08:00:25;6.75;;;3.20;;
9729;SDS011;4904;49.152;11.004;2022-11-24T08:02:52;5.90;;;3.40;;
9729;SDS011;4904;49.152;11.004;2022-11-24T08:05:19;9.52;;;3.80;;
9729;SDS011;4904;49.152;11.004;2022-11-24T08:07:46;6.03;;;3.30;;
9729;SDS011;4904;49.152;11.004;2022-11-24T08:10:14;5.15;;;3.30;;
9729;SDS011;4904;49.152;11.004;2022-11-24T08:12:42;6.57;;;3.42;;
9729;SDS011;4904;49.152;11.004;2022-11-24T08:15:09;5.70;;;3.45;;
9729;SDS011;4904;49.152;11.004;2022-11-24T08:17:36;8.57;;;3.30;;
9729;SDS011;4904;49.152;11.004;2022-11-24T08:20:03;6.97;;;3.38;;
9729;SDS011;4904;49.152;11.004;2022-11-24T08:22:31;9.45;;;4.03;;
9729;SDS011;4904;49.152;11.004;2022-11-24T08:24:58;6.75;;;2.92;;
9729;SDS011;4904;49.152;11.004;2022-11-24T08:27:26;5.67;;;3.43;;
9729;SDS011;4904;49.152;11.004;2022-11-24T08:29:53;4.38;;;2.95;;
9729;SDS011;4904;49.152;11.004;2022-11-24T08:32:20;7.40;;;2.92;;
9729;SDS011;4904;49.152;11.004;2022-11-24T08:34:47;9.15;;;3.53;;
9729;SDS011;4904;49.152;11.004;2022-11-24T08:37:13;6.50;;;3.00;;
9729;SDS011;4904;49.152;11.004;2022-11-24T08:39:40;7.03;;;3.58;;
9729;SDS011;4904;49.152;11.004;2022-11-24T08:42:07;8.88;;;3.75;;
9729;SDS011;4904;49.152;11.004;2022-11-24T08:44:35;5.88;;;3.30;;
9729;SDS011;4904;49.152;11.004;2022-11-24T08:47:02;5.57;;;3.50;;
9729;SDS011;4904;49.152;11.004;2022-11-24T08:49:29;10.88;;;3.88;;
9729;SDS011;4904;49.152;11.004;2022-11-24T08:51:56;6.68;;;3.28;;
9729;SDS011;4904;49.152;11.004;2022-11-24T08:54:23;11.15;;;3.55;;
9729;SDS011;4904;49.152;11.004;2022-11-24T08:56:50;9.10;;;3.50;;
9729;SDS011;4904;49.152;11.004;2022-11-24T08:59:17;8.02;;;3.78;;
9729;SDS011;4904;49.152;11.004;2022-11-24T09:01:45;6.13;;;3.40;;
9729;SDS011;4904;49.152;11.004;2022-11-24T09:04:13;8.32;;;3.55;;
9729;SDS011;4904;49.152;11.004;2022-11-24T09:06:40;6.60;;;2.95;;
9729;SDS011;4904;49.152;11.004;2022-11-24T09:09:08;6.60;;;3.50;;
9729;SDS011;4904;49.152;11.004;2022-11-24T09:11:36;9.25;;;3.42;;
9729;SDS011;4904;49.152;11.004;2022-11-24T09:14:03;8.27;;;3.60;;
9729;SDS011;4904;49.152;11.004;2022-11-24T09:16:30;7.90;;;3.78;;
9729;SDS011;4904;49.152;11.004;2022-11-24T09:18:59;4.53;;;3.13;;
9729;SDS011;4904;49.152;11.004;2022-11-24T09:21:27;5.43;;;2.90;;
9729;SDS011;4904;49.152;11.004;2022-11-24T09:23:55;6.43;;;3.47;;
9729;SDS011;4904;49.152;11.004;2022-11-24T09:26:23;7.93;;;3.45;;
9729;SDS011;4904;49.152;11.004;2022-11-24T09:28:52;6.22;;;3.60;;
9729;SDS011;4904;49.152;11.004;2022-11-24T09:31:20;10.02;;;3.47;;
9729;SDS011;4904;49.152;11.004;2022-11-24T09:33:48;7.13;;;3.63;;
9729;SDS011;4904;49.152;11.004;2022-11-24T09:36:16;10.23;;;3.95;;
9729;SDS011;4904;49.152;11.004;2022-11-24T09:38:44;7.57;;;3.33;;
9729;SDS011;4904;49.152;11.004;2022-11-24T09:41:20;6.18;;;3.00;;
9729;SDS011;4904;49.152;11.004;2022-11-24T09:44:26;10.93;;;4.13;;
9729;SDS011;4904;49.152;11.004;2022-11-24T09:47:07;9.02;;;3.70;;
9729;SDS011;4904;49.152;11.004;2022-11-24T09:49:41;6.45;;;2.60;;
9729;SDS011;4904;49.152;11.004;2022-11-24T09:52:15;7.55;;;3.10;;
9729;SDS011;4904;49.152;11.004;2022-11-24T09:54:47;6.78;;;2.95;;
9729;SDS011;4904;49.152;11.004;2022-11-24T09:57:18;7.60;;;2.92;;
9729;SDS011;4904;49.152;11.004;2022-11-24T09:59:48;10.23;;;2.75;;
9729;SDS011;4904;49.152;11.004;2022-11-24T10:02:15;7.43;;;2.60;;
9729;SDS011;4904;49.152;11.004;2022-11-24T10:04:43;8.90;;;2.47;;
9729;SDS011;4904;49.152;11.004;2022-11-24T10:07:15;6.32;;;1.98;;
9729;SDS011;4904;49.152;11.004;2022-11-24T10:09:51;7.15;;;2.50;;
9729;SDS011;4904;49.152;11.004;2022-11-24T10:12:35;6.32;;;2.05;;
9729;SDS011;4904;49.152;11.004;2022-11-24T10:15:22;7.20;;;1.95;;
9729;SDS011;4904;49.152;11.004;2022-11-24T10:18:03;7.22;;;2.20;;
9729;SDS011;4904;49.152;11.004;2022-11-24T10:20:41;5.97;;;2.30;;
9729;SDS011;4904;49.152;11.004;2022-11-24T10:23:23;4.72;;;1.73;;
9729;SDS011;4904;49.152;11.004;2022-11-24T10:26:00;6.88;;;1.70;;
9729;SDS011;4904;49.152;11.004;2022-11-24T10:28:30;4.88;;;1.95;;
9729;SDS011;4904;49.152;11.004;2022-11-24T10:31:12;3.63;;;1.80;;
9729;SDS011;4904;49.152;11.004;2022-11-24T10:33:46;2.35;;;1.85;;
9729;SDS011;4904;49.152;11.004;2022-11-24T10:36:13;4.30;;;1.90;;
9729;SDS011;4904;49.152;11.004;2022-11-24T10:38:49;4.35;;;1.92;;
9729;SDS011;4904;49.152;11.004;2022-11-24T10:41:22;3.38;;;1.70;;
9729;SDS011;4904;49.152;11.004;2022-11-24T10:43:55;3.72;;;1.80;;
9729;SDS011;4904;49.152;11.004;2022-11-24T10:46:24;5.63;;;2.00;;
9729;SDS011;4904;49.152;11.004;2022-11-24T10:48:54;4.43;;;2.10;;
9729;SDS011;4904;49.152;11.004;2022-11-24T10:51:35;3.85;;;1.70;;
9729;SDS011;4904;49.152;11.004;2022-11-24T10:54:14;2.53;;;1.40;;
9729;SDS011;4904;49.152;11.004;2022-11-24T10:56:42;3.42;;;1.95;;
9729;SDS011;4904;49.152;11.004;2022-11-24T10:59:19;4.18;;;1.75;;
9729;SDS011;4904;49.152;11.004;2022-11-24T11:01:47;4.55;;;1.88;;
9729;SDS011;4904;49.152;11.004;2022-11-24T11:04:16;4.22;;;3.10;;
9729;SDS011;4904;49.152;11.004;2022-11-24T11:06:45;6.63;;;2.17;;
9729;SDS011;4904;49.152;11.004;2022-11-24T11:09:17;4.80;;;1.85;;
9729;SDS011;4904;49.152;11.004;2022-11-24T11:11:46;3.95;;;1.60;;
9729;SDS011;4904;49.152;11.004;2022-11-24T11:14:28;4.65;;;1.83;;
9729;SDS011;4904;49.152;11.004;2022-11-24T11:16:56;6.60;;;3.17;;
9729;SDS011;4904;49.152;11.004;2022-11-24T11:19:27;5.18;;;2.13;;
9729;SDS011;4904;49.152;11.004;2022-11-24T11:21:59;4.38;;;2.03;;
9729;SDS011;4904;49.152;11.004;2022-11-24T11:24:28;4.43;;;1.85;;
9729;SDS011;4904;49.152;11.004;2022-11-24T11:26:58;4.75;;;1.83;;
9729;SDS011;4904;49.152;11.004;2022-11-24T11:29:26;3.30;;;1.70;;
9729;SDS011;4904;49.152;11.004;2022-11-24T11:31:56;2.78;;;1.90;;
9729;SDS011;4904;49.152;11.004;2022-11-24T11:34:24;5.45;;;2.33;;
9729;SDS011;4904;49.152;11.004;2022-11-24T11:36:52;3.28;;;1.83;;
9729;SDS011;4904;49.152;11.004;2022-11-24T11:39:22;7.30;;;2.38;;
9729;SDS011;4904;49.152;11.004;2022-11-24T11:41:54;4.57;;;2.00;;
9729;SDS011;4904;49.152;11.004;2022-11-24T11:44:33;4.72;;;1.70;;
9729;SDS011;4904;49.152;11.004;2022-11-24T11:47:07;4.00;;;1.80;;
9729;SDS011;4904;49.152;11.004;2022-11-24T11:49:40;1.92;;;1.67;;
9729;SDS011;4904;49.152;11.004;2022-11-24T11:52:11;5.50;;;1.73;;
9729;SDS011;4904;49.152;11.004;2022-11-24T11:55:02;2.88;;;1.83;;
9729;SDS011;4904;49.152;11.004;2022-11-24T11:57:59;3.25;;;1.52;;
9729;SDS011;4904;49.152;11.004;2022-11-24T12:00:33;4.35;;;1.90;;
9729;SDS011;4904;49.152;11.004;2022-11-24T12:03:21;5.38;;;1.60;;
9729;SDS011;4904;49.152;11.004;2022-11-24T12:06:07;3.60;;;1.50;;
9729;SDS011;4904;49.152;11.004;2022-11-24T12:08:45;4.50;;;1.85;;
9729;SDS011;4904;49.152;11.004;2022-11-24T12:11:17;2.33;;;1.45;;
9729;SDS011;4904;49.152;11.004;2022-11-24T12:14:00;5.25;;;1.65;;
9729;SDS011;4904;49.152;11.004;2022-11-24T12:16:38;4.07;;;1.42;;
9729;SDS011;4904;49.152;11.004;2022-11-24T12:19:14;3.55;;;1.58;;
9729;SDS011;4904;49.152;11.004;2022-11-24T12:21:54;4.15;;;1.50;;
9729;SDS011;4904;49.152;11.004;2022-11-24T12:24:33;5.53;;;1.67;;
9729;SDS011;4904;49.152;11.004;2022-11-24T12:27:07;2.85;;;1.35;;
9729;SDS011;4904;49.152;11.004;2022-11-24T12:29:46;4.18;;;1.40;;
9729;SDS011;4904;49.152;11.004;2022-11-24T12:32:31;2.78;;;1.17;;
9729;SDS011;4904;49.152;11.004;2022-11-24T12:35:15;3.38;;;1.45;;
9729;SDS011;4904;49.152;11.004;2022-11-24T12:37:54;5.40;;;1.60;;
9729;SDS011;4904;49.152;11.004;2022-11-24T12:40:30;4.90;;;1.80;;
9729;SDS011;4904;49.152;11.004;2022-11-24T12:43:10;1.70;;;1.40;;
9729;SDS011;4904;49.152;11.004;2022-11-24T12:45:47;2.72;;;1.60;;
9729;SDS011;4904;49.152;11.004;2022-11-24T12:48:22;4.00;;;1.60;;
9729;SDS011;4904;49.152;11.004;2022-11-24T12:50:56;4.75;;;1.73;;
9729;SDS011;4904;49.152;11.004;2022-11-24T12:53:25;4.05;;;1.67;;
9729;SDS011;4904;49.152;11.004;2022-11-24T12:55:57;2.90;;;1.58;;
9729;SDS011;4904;49.152;11.004;2022-11-24T12:58:31;7.90;;;1.40;;
9729;SDS011;4904;49.152;11.004;2022-11-24T13:01:10;8.15;;;1.98;;
9729;SDS011;4904;49.152;11.004;2022-11-24T13:03:48;4.95;;;1.92;;
9729;SDS011;4904;49.152;11.004;2022-11-24T13:06:26;3.60;;;2.25;;
9729;SDS011;4904;49.152;11.004;2022-11-24T13:08:57;3.35;;;1.63;;
9729;SDS011;4904;49.152;11.004;2022-11-24T13:14:11;3.55;;;1.45;;
9729;SDS011;4904;49.152;11.004;2022-11-24T13:16:51;3.10;;;1.73;;
9729;SDS011;4904;49.152;11.004;2022-11-24T13:19:20;5.03;;;1.70;;
9729;SDS011;4904;49.152;11.004;2022-11-24T13:21:55;5.47;;;1.70;;
9729;SDS011;4904;49.152;11.004;2022-11-24T13:24:26;8.25;;;1.80;;
9729;SDS011;4904;49.152;11.004;2022-11-24T13:33:30;5.57;;;1.60;;
9729;SDS011;4904;49.152;11.004;2022-11-24T13:38:55;4.05;;;1.77;;
9729;SDS011;4904;49.152;11.004;2022-11-24T13:44:45;2.78;;;1.92;;
9729;SDS011;4904;49.152;11.004;2022-11-24T13:47:29;4.22;;;1.77;;
9729;SDS011;4904;49.152;11.004;2022-11-24T13:50:03;4.93;;;1.65;;
9729;SDS011;4904;49.152;11.004;2022-11-24T13:52:39;3.83;;;2.50;;
9729;SDS011;4904;49.152;11.004;2022-11-24T13:55:17;5.20;;;1.90;;
9729;SDS011;4904;49.152;11.004;2022-11-24T13:57:47;2.28;;;1.60;;
9729;SDS011;4904;49.152;11.004;2022-11-24T14:00:17;5.25;;;2.05;;
9729;SDS011;4904;49.152;11.004;2022-11-24T14:02:46;4.60;;;1.42;;
9729;SDS011;4904;49.152;11.004;2022-11-24T14:05:16;3.38;;;1.80;;
9729;SDS011;4904;49.152;11.004;2022-11-24T14:07:45;3.35;;;1.80;;
9729;SDS011;4904;49.152;11.004;2022-11-24T14:10:13;2.15;;;1.35;;
9729;SDS011;4904;49.152;11.004;2022-11-24T14:12:42;3.55;;;1.48;;
9729;SDS011;4904;49.152;11.004;2022-11-24T14:15:18;4.03;;;1.30;;
9729;SDS011;4904;49.152;11.004;2022-11-24T14:17:47;3.58;;;1.13;;
9729;SDS011;4904;49.152;11.004;2022-11-24T14:20:21;2.17;;;1.30;;
9729;SDS011;4904;49.152;11.004;2022-11-24T14:22:50;3.65;;;1.52;;
9729;SDS011;4904;49.152;11.004;2022-11-24T14:25:20;4.60;;;1.48;;
9729;SDS011;4904;49.152;11.004;2022-11-24T14:27:53;5.32;;;1.70;;
9729;SDS011;4904;49.152;11.004;2022-11-24T14:30:22;2.83;;;1.35;;
9729;SDS011;4904;49.152;11.004;2022-11-24T14:32:53;2.10;;;1.30;;
9729;SDS011;4904;49.152;11.004;2022-11-24T14:35:23;2.42;;;1.40;;
9729;SDS011;4904;49.152;11.004;2022-11-24T14:37:52;2.50;;;1.30;;
9729;SDS011;4904;49.152;11.004;2022-11-24T14:40:38;3.90;;;1.65;;
9729;SDS011;4904;49.152;11.004;2022-11-24T14:43:14;7.82;;;1.50;;
9729;SDS011;4904;49.152;11.004;2022-11-24T14:45:47;5.10;;;1.52;;
9729;SDS011;4904;49.152;11.004;2022-11-24T14:48:15;3.78;;;1.55;;
9729;SDS011;4904;49.152;11.004;2022-11-24T14:50:44;3.45;;;1.55;;
9729;SDS011;4904;49.152;11.004;2022-11-24T14:53:13;4.60;;;1.67;;
9729;SDS011;4904;49.152;11.004;2022-11-24T14:55:41;4.32;;;1.80;;
9729;SDS011;4904;49.152;11.004;2022-11-24T14:58:18;5.45;;;2.10;;
9729;SDS011;4904;49.152;11.004;2022-11-24T15:03:34;5.90;;;1.30;;
9729;SDS011;4904;49.152;11.004;2022-11-24T15:06:03;4.60;;;1.48;;
9729;SDS011;4904;49.152;11.004;2022-11-24T15:08:41;4.10;;;1.65;;
9729;SDS011;4904;49.152;11.004;2022-11-24T15:11:11;4.22;;;2.03;;
9729;SDS011;4904;49.152;11.004;2022-11-24T15:13:39;1.90;;;1.20;;
9729;SDS011;4904;49.152;11.004;2022-11-24T15:16:18;6.03;;;1.95;;
9729;SDS011;4904;49.152;11.004;2022-11-24T15:18:48;6.50;;;2.00;;
9729;SDS011;4904;49.152;11.004;2022-11-24T15:21:30;6.97;;;2.10;;
9729;SDS011;4904;49.152;11.004;2022-11-24T15:24:04;6.72;;;2.40;;
9729;SDS011;4904;49.152;11.004;2022-11-24T15:26:39;3.15;;;1.80;;
9729;SDS011;4904;49.152;11.004;2022-11-24T15:29:06;4.68;;;1.77;;
9729;SDS011;4904;49.152;11.004;2022-11-24T15:31:33;5.47;;;2.35;;
9729;SDS011;4904;49.152;11.004;2022-11-24T15:34:00;5.43;;;2.10;;